Airfield :







YOU CAN JOIN US ON...

 
LOGIN :

Register | Disclaimer

   EN    FR    IT 

 









Legend :    VFR   Marginal VFR   IFR   Intensive IFR   Very Intensive IFR
Visi :
Ceiling :
>= 8 km
>= 3000ft
5 to 8 km
1000 to 3000 ft
1500m to 5 km
500 to 1000 ft
800 to 1500m
200 to 500 ft
< 800m
< 200 ft
Symbols :   Thunderstorms  Fog  Heavy snow  Heavy precipitations  Wind > 20 kt






- Airport Elevation : 119 ft
- IATA code : YPJ


CYLA - Aupaluk

CURRENT METAR :
  • 142000Z 09005KT 15SM FEW020 FEW240 19/06 A3021 RMK SC1CI1 SC TR VIA CYQB SLP233 DENSITY ALT 300FT

EXPIRED METARs :
  • 141900Z 05009KT 15SM FEW020 BKN270 18/07 A3021 RMK SC1CI6 SC TR VIA CYQB SLP233 DENSITY ALT 200FT
  • 141800Z 05010KT 15SM FEW020 FEW120 17/08 A3021 RMK SC1AC1 SC TR VIA CYQB SLP232

TAF N/A
CZUL FIR / North America



MET'MAP, your aeronautical weather chart ! - Copyright ORBIFLY December 2007 - Disclaimer

ORBIFLY MET'MAP TEAM :

Programming & Development : Alexandra Zaïnal
Concept & original design : Baudouin d'Aumeries
Assistance for programming : Marc-Olivier Méhu
Technical & hardware support : Manuel Goepfert

Contact : metmap@orbifly.com




SOURCES & CREDITS :

   NOAA